Bemidji Regional Airport Bemidji US
ICAO: KBJI
IATA: BJI
Category: Medium
Scheduled Services: No

Elevation: 1391 ft
TransAlt. 18000 ft.

Airport Communications:
AWOS 3:119.275
MINNEAPOLIS CNTR:134.75
PRINCETON RDO:123.6
CTAF/UNICOM:122.8

KBJI Zoom In..

If you have problems with the map follow the link
https://www.worldairports.se/pages/airport.php?
ICAO=KBJI

Runways:

(A) RW 07 length 5700 ft width 150 ft
---- / hdg 70

(B) RW 13 length 7004 ft width 150 ft
---- / hdg 130

(C) RW 25 length 5700 ft width 150 ft
ILS 109.35 / hdg 250

(D) RW 31 length 7004 ft width 150 ft
ILS 111.90 / hdg 310

Location; KBJI
Day. 10 / Time. 02.35 Zulu
* Altimeter: 29.89
* Temperature: -24° c. 11.2°f.
* Wind from: 270° Speed 06 kn.
Dewpoint: -27° c.
Visibility: 7 Statute Miles.
Clouds: Clear (automated report).

KBJI 100235Z AUTO 27006KT 7SM CLR M24/M27 A2989 RMK AO2 T12381266


Wind From 270°
Speed 06 kn.

 
 
jpsmedia worldairports.se 2019   terms of use